sensor_id;sensor_type;location;lat;lon;timestamp;temperature;humidity
17170;DHT22;8700;48.222;16.342;2024-01-06T00:00:11;7.90;99.90
17170;DHT22;8700;48.222;16.342;2024-01-06T00:03:34;7.90;99.90
17170;DHT22;8700;48.222;16.342;2024-01-06T00:06:55;7.90;99.90
17170;DHT22;8700;48.222;16.342;2024-01-06T00:10:16;7.80;99.90
17170;DHT22;8700;48.222;16.342;2024-01-06T00:13:37;7.70;99.90
17170;DHT22;8700;48.222;16.342;2024-01-06T00:16:59;7.70;99.90
17170;DHT22;8700;48.222;16.342;2024-01-06T00:20:21;7.60;99.90
17170;DHT22;8700;48.222;16.342;2024-01-06T00:23:42;7.70;99.90
17170;DHT22;8700;48.222;16.342;2024-01-06T00:27:04;7.60;99.90
17170;DHT22;8700;48.222;16.342;2024-01-06T00:30:25;7.70;99.90
17170;DHT22;8700;48.222;16.342;2024-01-06T00:33:46;7.70;99.90
17170;DHT22;8700;48.222;16.342;2024-01-06T00:37:08;7.70;99.90
17170;DHT22;8700;48.222;16.342;2024-01-06T00:40:29;7.70;99.90
17170;DHT22;8700;48.222;16.342;2024-01-06T00:43:52;7.60;99.90
17170;DHT22;8700;48.222;16.342;2024-01-06T00:47:13;7.60;99.90
17170;DHT22;8700;48.222;16.342;2024-01-06T00:50:34;7.40;99.90
17170;DHT22;8700;48.222;16.342;2024-01-06T00:53:57;7.40;99.90
17170;DHT22;8700;48.222;16.342;2024-01-06T00:57:18;7.50;99.90
17170;DHT22;8700;48.222;16.342;2024-01-06T01:00:43;7.50;99.90
17170;DHT22;8700;48.222;16.342;2024-01-06T01:04:04;7.40;99.90
17170;DHT22;8700;48.222;16.342;2024-01-06T01:07:26;7.30;99.90
17170;DHT22;8700;48.222;16.342;2024-01-06T01:10:48;7.20;99.90
17170;DHT22;8700;48.222;16.342;2024-01-06T01:14:09;7.20;99.90
17170;DHT22;8700;48.222;16.342;2024-01-06T01:17:30;7.20;99.90
17170;DHT22;8700;48.222;16.342;2024-01-06T01:20:51;7.20;99.90
17170;DHT22;8700;48.222;16.342;2024-01-06T01:24:12;7.30;99.90
17170;DHT22;8700;48.222;16.342;2024-01-06T01:27:35;7.40;99.90
17170;DHT22;8700;48.222;16.342;2024-01-06T01:30:56;7.50;99.90
17170;DHT22;8700;48.222;16.342;2024-01-06T01:34:17;7.60;99.90
17170;DHT22;8700;48.222;16.342;2024-01-06T01:37:39;7.50;99.90
17170;DHT22;8700;48.222;16.342;2024-01-06T01:41:00;7.50;99.90
17170;DHT22;8700;48.222;16.342;2024-01-06T01:44:23;7.50;99.90
17170;DHT22;8700;48.222;16.342;2024-01-06T01:47:44;7.50;99.90
17170;DHT22;8700;48.222;16.342;2024-01-06T01:51:07;7.40;99.90
17170;DHT22;8700;48.222;16.342;2024-01-06T01:54:29;7.50;99.90
17170;DHT22;8700;48.222;16.342;2024-01-06T01:57:50;7.50;99.90
17170;DHT22;8700;48.222;16.342;2024-01-06T02:01:13;7.50;99.90
17170;DHT22;8700;48.222;16.342;2024-01-06T02:04:35;7.70;99.90
17170;DHT22;8700;48.222;16.342;2024-01-06T02:07:56;7.70;99.90
17170;DHT22;8700;48.222;16.342;2024-01-06T02:11:18;7.60;99.90
17170;DHT22;8700;48.222;16.342;2024-01-06T02:14:39;7.50;99.90
17170;DHT22;8700;48.222;16.342;2024-01-06T02:18:03;7.50;99.90
17170;DHT22;8700;48.222;16.342;2024-01-06T02:21:25;7.50;99.90
17170;DHT22;8700;48.222;16.342;2024-01-06T02:24:50;7.40;99.90
17170;DHT22;8700;48.222;16.342;2024-01-06T02:28:11;7.40;99.90
17170;DHT22;8700;48.222;16.342;2024-01-06T02:31:32;7.30;99.90
17170;DHT22;8700;48.222;16.342;2024-01-06T02:34:53;7.30;99.90
17170;DHT22;8700;48.222;16.342;2024-01-06T02:38:14;7.30;99.90
17170;DHT22;8700;48.222;16.342;2024-01-06T02:41:36;7.30;99.90
17170;DHT22;8700;48.222;16.342;2024-01-06T02:44:58;7.20;99.90
17170;DHT22;8700;48.222;16.342;2024-01-06T02:48:19;7.20;99.90
17170;DHT22;8700;48.222;16.342;2024-01-06T02:51:40;7.20;99.90
17170;DHT22;8700;48.222;16.342;2024-01-06T02:55:01;7.20;99.90
17170;DHT22;8700;48.222;16.342;2024-01-06T02:58:24;7.20;99.90
17170;DHT22;8700;48.222;16.342;2024-01-06T03:01:45;7.10;99.90
17170;DHT22;8700;48.222;16.342;2024-01-06T03:05:06;7.10;99.90
17170;DHT22;8700;48.222;16.342;2024-01-06T03:08:28;7.10;99.90
17170;DHT22;8700;48.222;16.342;2024-01-06T03:11:49;7.10;99.90
17170;DHT22;8700;48.222;16.342;2024-01-06T03:15:11;7.10;99.90
17170;DHT22;8700;48.222;16.342;2024-01-06T03:18:33;7.00;99.90
17170;DHT22;8700;48.222;16.342;2024-01-06T03:21:53;7.00;99.90
17170;DHT22;8700;48.222;16.342;2024-01-06T03:25:15;7.10;99.90
17170;DHT22;8700;48.222;16.342;2024-01-06T03:28:36;7.20;99.90
17170;DHT22;8700;48.222;16.342;2024-01-06T03:31:58;7.20;99.90
17170;DHT22;8700;48.222;16.342;2024-01-06T03:35:19;7.20;99.90
17170;DHT22;8700;48.222;16.342;2024-01-06T03:38:40;7.30;99.90
17170;DHT22;8700;48.222;16.342;2024-01-06T03:42:02;7.40;99.90
17170;DHT22;8700;48.222;16.342;2024-01-06T03:45:23;7.30;99.90
17170;DHT22;8700;48.222;16.342;2024-01-06T03:48:45;7.40;99.90
17170;DHT22;8700;48.222;16.342;2024-01-06T03:52:06;7.50;99.90
17170;DHT22;8700;48.222;16.342;2024-01-06T03:55:27;7.60;99.90
17170;DHT22;8700;48.222;16.342;2024-01-06T03:58:48;7.50;99.90
17170;DHT22;8700;48.222;16.342;2024-01-06T04:02:10;7.50;99.90
17170;DHT22;8700;48.222;16.342;2024-01-06T04:05:32;7.50;99.90
17170;DHT22;8700;48.222;16.342;2024-01-06T04:08:53;7.40;99.90
17170;DHT22;8700;48.222;16.342;2024-01-06T04:12:15;7.50;99.90
17170;DHT22;8700;48.222;16.342;2024-01-06T04:15:36;7.50;99.90
17170;DHT22;8700;48.222;16.342;2024-01-06T04:18:57;7.50;99.90
17170;DHT22;8700;48.222;16.342;2024-01-06T04:22:20;7.50;99.90
17170;DHT22;8700;48.222;16.342;2024-01-06T04:25:41;7.50;99.90
17170;DHT22;8700;48.222;16.342;2024-01-06T04:29:02;7.50;99.90
17170;DHT22;8700;48.222;16.342;2024-01-06T04:32:23;7.50;99.90
17170;DHT22;8700;48.222;16.342;2024-01-06T04:35:44;7.60;99.90
17170;DHT22;8700;48.222;16.342;2024-01-06T04:39:06;7.60;99.90
17170;DHT22;8700;48.222;16.342;2024-01-06T04:42:28;7.70;99.90
17170;DHT22;8700;48.222;16.342;2024-01-06T04:45:49;7.80;99.90
17170;DHT22;8700;48.222;16.342;2024-01-06T04:49:10;7.80;99.90
17170;DHT22;8700;48.222;16.342;2024-01-06T04:52:31;7.80;99.90
17170;DHT22;8700;48.222;16.342;2024-01-06T04:55:54;7.80;99.90
17170;DHT22;8700;48.222;16.342;2024-01-06T04:59:15;7.80;99.90
17170;DHT22;8700;48.222;16.342;2024-01-06T05:02:36;7.90;99.90
17170;DHT22;8700;48.222;16.342;2024-01-06T05:05:57;7.80;99.90
17170;DHT22;8700;48.222;16.342;2024-01-06T05:09:18;7.80;99.90
17170;DHT22;8700;48.222;16.342;2024-01-06T05:12:41;7.70;99.90
17170;DHT22;8700;48.222;16.342;2024-01-06T05:16:02;7.60;99.90
17170;DHT22;8700;48.222;16.342;2024-01-06T05:19:24;7.60;99.90
17170;DHT22;8700;48.222;16.342;2024-01-06T05:22:45;7.70;99.90
17170;DHT22;8700;48.222;16.342;2024-01-06T05:26:06;7.70;99.90
17170;DHT22;8700;48.222;16.342;2024-01-06T05:29:28;7.60;99.90
17170;DHT22;8700;48.222;16.342;2024-01-06T05:32:49;7.60;99.90
17170;DHT22;8700;48.222;16.342;2024-01-06T05:36:10;7.70;99.90
17170;DHT22;8700;48.222;16.342;2024-01-06T05:39:31;7.60;99.90
17170;DHT22;8700;48.222;16.342;2024-01-06T05:42:52;7.50;99.90
17170;DHT22;8700;48.222;16.342;2024-01-06T05:46:21;7.50;99.90
17170;DHT22;8700;48.222;16.342;2024-01-06T05:49:42;7.60;99.90
17170;DHT22;8700;48.222;16.342;2024-01-06T05:53:04;7.60;99.90
17170;DHT22;8700;48.222;16.342;2024-01-06T05:56:25;7.50;99.90
17170;DHT22;8700;48.222;16.342;2024-01-06T05:59:47;7.50;99.90
17170;DHT22;8700;48.222;16.342;2024-01-06T06:03:10;7.50;99.90
17170;DHT22;8700;48.222;16.342;2024-01-06T06:06:31;7.60;99.90
17170;DHT22;8700;48.222;16.342;2024-01-06T06:09:52;7.60;99.90
17170;DHT22;8700;48.222;16.342;2024-01-06T06:13:14;7.50;99.90
17170;DHT22;8700;48.222;16.342;2024-01-06T06:16:35;7.70;99.90
17170;DHT22;8700;48.222;16.342;2024-01-06T06:19:58;7.80;99.90
17170;DHT22;8700;48.222;16.342;2024-01-06T06:23:19;7.90;99.90
17170;DHT22;8700;48.222;16.342;2024-01-06T06:26:40;7.70;99.90
17170;DHT22;8700;48.222;16.342;2024-01-06T06:30:02;7.50;99.90
17170;DHT22;8700;48.222;16.342;2024-01-06T06:33:23;7.70;99.90
17170;DHT22;8700;48.222;16.342;2024-01-06T06:36:45;7.80;99.90
17170;DHT22;8700;48.222;16.342;2024-01-06T06:40:08;7.80;99.90
17170;DHT22;8700;48.222;16.342;2024-01-06T06:43:29;7.80;99.90
17170;DHT22;8700;48.222;16.342;2024-01-06T06:46:50;7.80;99.90
17170;DHT22;8700;48.222;16.342;2024-01-06T06:50:11;7.80;99.90
17170;DHT22;8700;48.222;16.342;2024-01-06T06:53:33;7.80;99.90
17170;DHT22;8700;48.222;16.342;2024-01-06T06:56:54;7.70;99.90
17170;DHT22;8700;48.222;16.342;2024-01-06T07:00:16;7.60;99.90
17170;DHT22;8700;48.222;16.342;2024-01-06T07:03:38;7.60;99.90
17170;DHT22;8700;48.222;16.342;2024-01-06T07:06:59;7.50;99.90
17170;DHT22;8700;48.222;16.342;2024-01-06T07:10:22;7.50;99.90
17170;DHT22;8700;48.222;16.342;2024-01-06T07:13:43;7.50;99.90
17170;DHT22;8700;48.222;16.342;2024-01-06T07:17:04;7.50;99.90
17170;DHT22;8700;48.222;16.342;2024-01-06T07:20:25;7.30;99.90
17170;DHT22;8700;48.222;16.342;2024-01-06T07:23:46;7.40;99.90
17170;DHT22;8700;48.222;16.342;2024-01-06T07:27:09;7.60;99.90
17170;DHT22;8700;48.222;16.342;2024-01-06T07:30:30;7.70;99.90
17170;DHT22;8700;48.222;16.342;2024-01-06T07:33:51;7.70;99.90
17170;DHT22;8700;48.222;16.342;2024-01-06T07:37:13;7.50;99.90
17170;DHT22;8700;48.222;16.342;2024-01-06T07:40:35;7.50;99.90
17170;DHT22;8700;48.222;16.342;2024-01-06T07:43:57;7.70;99.90
17170;DHT22;8700;48.222;16.342;2024-01-06T07:47:20;7.70;99.90
17170;DHT22;8700;48.222;16.342;2024-01-06T07:50:41;7.80;99.90
17170;DHT22;8700;48.222;16.342;2024-01-06T07:54:03;7.90;99.90
17170;DHT22;8700;48.222;16.342;2024-01-06T07:57:26;8.00;99.90
17170;DHT22;8700;48.222;16.342;2024-01-06T08:00:48;7.90;99.90
17170;DHT22;8700;48.222;16.342;2024-01-06T08:04:09;7.90;99.90
17170;DHT22;8700;48.222;16.342;2024-01-06T08:07:30;7.80;99.90
17170;DHT22;8700;48.222;16.342;2024-01-06T08:10:52;7.90;99.90
17170;DHT22;8700;48.222;16.342;2024-01-06T08:14:13;7.90;99.90
17170;DHT22;8700;48.222;16.342;2024-01-06T08:17:35;7.90;99.90
17170;DHT22;8700;48.222;16.342;2024-01-06T08:20:57;7.80;99.90
17170;DHT22;8700;48.222;16.342;2024-01-06T08:24:18;7.70;99.90
17170;DHT22;8700;48.222;16.342;2024-01-06T08:27:39;7.50;99.90
17170;DHT22;8700;48.222;16.342;2024-01-06T08:31:00;7.60;99.90
17170;DHT22;8700;48.222;16.342;2024-01-06T08:34:23;7.40;99.90
17170;DHT22;8700;48.222;16.342;2024-01-06T08:37:43;7.30;99.90
17170;DHT22;8700;48.222;16.342;2024-01-06T08:41:06;7.10;99.90
17170;DHT22;8700;48.222;16.342;2024-01-06T08:44:27;7.10;99.90
17170;DHT22;8700;48.222;16.342;2024-01-06T08:47:48;7.20;99.90
17170;DHT22;8700;48.222;16.342;2024-01-06T08:51:11;7.10;99.90
17170;DHT22;8700;48.222;16.342;2024-01-06T08:54:32;7.00;99.90
17170;DHT22;8700;48.222;16.342;2024-01-06T08:57:54;7.10;99.90
17170;DHT22;8700;48.222;16.342;2024-01-06T09:01:15;7.10;99.90
17170;DHT22;8700;48.222;16.342;2024-01-06T09:04:36;7.10;99.90
17170;DHT22;8700;48.222;16.342;2024-01-06T09:07:59;7.10;99.90
17170;DHT22;8700;48.222;16.342;2024-01-06T09:11:20;7.10;99.90
17170;DHT22;8700;48.222;16.342;2024-01-06T09:14:41;7.20;99.90
17170;DHT22;8700;48.222;16.342;2024-01-06T09:18:02;7.20;99.90
17170;DHT22;8700;48.222;16.342;2024-01-06T09:21:23;7.20;99.90
17170;DHT22;8700;48.222;16.342;2024-01-06T09:24:47;7.30;99.90
17170;DHT22;8700;48.222;16.342;2024-01-06T09:28:08;7.30;99.90
17170;DHT22;8700;48.222;16.342;2024-01-06T09:31:30;7.40;99.90
17170;DHT22;8700;48.222;16.342;2024-01-06T09:34:51;7.10;99.90
17170;DHT22;8700;48.222;16.342;2024-01-06T09:38:13;6.90;99.90
17170;DHT22;8700;48.222;16.342;2024-01-06T09:41:35;7.10;99.90
17170;DHT22;8700;48.222;16.342;2024-01-06T09:44:56;7.00;99.90
17170;DHT22;8700;48.222;16.342;2024-01-06T09:48:18;7.00;99.90
17170;DHT22;8700;48.222;16.342;2024-01-06T09:51:39;6.90;99.90
17170;DHT22;8700;48.222;16.342;2024-01-06T09:55:02;6.90;99.90
17170;DHT22;8700;48.222;16.342;2024-01-06T09:58:31;7.00;99.90
17170;DHT22;8700;48.222;16.342;2024-01-06T10:01:55;7.20;99.90
17170;DHT22;8700;48.222;16.342;2024-01-06T10:05:16;7.30;99.90
17170;DHT22;8700;48.222;16.342;2024-01-06T10:08:38;7.40;99.90
17170;DHT22;8700;48.222;16.342;2024-01-06T10:12:00;7.30;99.90
17170;DHT22;8700;48.222;16.342;2024-01-06T10:15:22;7.30;99.90
17170;DHT22;8700;48.222;16.342;2024-01-06T10:18:44;7.50;99.90
17170;DHT22;8700;48.222;16.342;2024-01-06T10:22:05;7.40;99.90
17170;DHT22;8700;48.222;16.342;2024-01-06T10:25:26;7.20;99.90
17170;DHT22;8700;48.222;16.342;2024-01-06T10:28:48;7.20;99.90
17170;DHT22;8700;48.222;16.342;2024-01-06T10:32:11;7.10;99.90
17170;DHT22;8700;48.222;16.342;2024-01-06T10:35:32;7.10;99.90
17170;DHT22;8700;48.222;16.342;2024-01-06T10:38:54;6.90;99.90
17170;DHT22;8700;48.222;16.342;2024-01-06T10:42:16;6.80;99.90
17170;DHT22;8700;48.222;16.342;2024-01-06T10:45:38;6.70;99.90
17170;DHT22;8700;48.222;16.342;2024-01-06T10:49:01;6.80;99.90
17170;DHT22;8700;48.222;16.342;2024-01-06T10:52:24;7.00;99.90
17170;DHT22;8700;48.222;16.342;2024-01-06T10:55:46;7.10;99.90
17170;DHT22;8700;48.222;16.342;2024-01-06T10:59:11;7.30;99.90
17170;DHT22;8700;48.222;16.342;2024-01-06T11:02:34;7.10;99.90
17170;DHT22;8700;48.222;16.342;2024-01-06T11:05:58;7.20;99.90
17170;DHT22;8700;48.222;16.342;2024-01-06T11:09:22;7.20;99.90
17170;DHT22;8700;48.222;16.342;2024-01-06T11:12:45;7.30;99.90
17170;DHT22;8700;48.222;16.342;2024-01-06T11:16:06;7.30;99.90
17170;DHT22;8700;48.222;16.342;2024-01-06T11:19:44;7.40;99.90
17170;DHT22;8700;48.222;16.342;2024-01-06T11:23:19;7.30;99.90
17170;DHT22;8700;48.222;16.342;2024-01-06T11:26:43;7.20;99.90
17170;DHT22;8700;48.222;16.342;2024-01-06T11:30:05;7.40;99.90
17170;DHT22;8700;48.222;16.342;2024-01-06T11:33:27;7.40;99.90
17170;DHT22;8700;48.222;16.342;2024-01-06T11:36:49;7.30;99.90
17170;DHT22;8700;48.222;16.342;2024-01-06T11:40:22;7.30;99.90
17170;DHT22;8700;48.222;16.342;2024-01-06T11:43:44;7.50;99.90
17170;DHT22;8700;48.222;16.342;2024-01-06T11:47:06;7.50;99.90
17170;DHT22;8700;48.222;16.342;2024-01-06T11:50:29;7.50;99.90
17170;DHT22;8700;48.222;16.342;2024-01-06T11:53:51;7.40;99.90
17170;DHT22;8700;48.222;16.342;2024-01-06T11:57:13;7.40;99.90
17170;DHT22;8700;48.222;16.342;2024-01-06T12:00:34;7.30;99.90
17170;DHT22;8700;48.222;16.342;2024-01-06T12:03:56;7.40;99.90
17170;DHT22;8700;48.222;16.342;2024-01-06T12:07:18;7.40;99.90
17170;DHT22;8700;48.222;16.342;2024-01-06T12:10:39;7.40;99.90
17170;DHT22;8700;48.222;16.342;2024-01-06T12:14:02;7.30;99.90
17170;DHT22;8700;48.222;16.342;2024-01-06T12:17:29;7.20;99.90
17170;DHT22;8700;48.222;16.342;2024-01-06T12:20:50;7.30;99.90
17170;DHT22;8700;48.222;16.342;2024-01-06T12:24:16;7.20;99.90
17170;DHT22;8700;48.222;16.342;2024-01-06T12:27:42;7.30;99.90
17170;DHT22;8700;48.222;16.342;2024-01-06T12:31:09;7.30;99.90
17170;DHT22;8700;48.222;16.342;2024-01-06T12:34:32;7.10;99.90
17170;DHT22;8700;48.222;16.342;2024-01-06T12:37:53;7.20;99.90
17170;DHT22;8700;48.222;16.342;2024-01-06T12:41:15;7.30;99.90
17170;DHT22;8700;48.222;16.342;2024-01-06T12:44:36;7.20;99.90
17170;DHT22;8700;48.222;16.342;2024-01-06T12:48:00;7.40;99.90
17170;DHT22;8700;48.222;16.342;2024-01-06T12:51:21;7.20;99.90
17170;DHT22;8700;48.222;16.342;2024-01-06T12:54:42;7.20;99.90
17170;DHT22;8700;48.222;16.342;2024-01-06T12:58:04;7.30;99.90
17170;DHT22;8700;48.222;16.342;2024-01-06T13:01:25;7.30;99.90
17170;DHT22;8700;48.222;16.342;2024-01-06T13:04:47;7.30;99.90
17170;DHT22;8700;48.222;16.342;2024-01-06T13:08:08;7.40;99.90
17170;DHT22;8700;48.222;16.342;2024-01-06T13:11:29;7.30;99.90
17170;DHT22;8700;48.222;16.342;2024-01-06T13:14:50;7.40;99.90
17170;DHT22;8700;48.222;16.342;2024-01-06T13:18:12;7.30;99.90
17170;DHT22;8700;48.222;16.342;2024-01-06T13:21:34;7.30;99.90
17170;DHT22;8700;48.222;16.342;2024-01-06T13:24:59;7.20;99.90
17170;DHT22;8700;48.222;16.342;2024-01-06T13:28:20;7.40;99.90
17170;DHT22;8700;48.222;16.342;2024-01-06T13:31:44;7.30;99.90
17170;DHT22;8700;48.222;16.342;2024-01-06T13:35:05;7.30;99.90
17170;DHT22;8700;48.222;16.342;2024-01-06T13:38:28;7.20;99.90
17170;DHT22;8700;48.222;16.342;2024-01-06T13:41:49;7.20;99.90
17170;DHT22;8700;48.222;16.342;2024-01-06T13:45:11;7.30;99.90
17170;DHT22;8700;48.222;16.342;2024-01-06T13:48:33;7.30;99.90
17170;DHT22;8700;48.222;16.342;2024-01-06T13:51:54;7.30;99.90
17170;DHT22;8700;48.222;16.342;2024-01-06T13:55:16;7.20;99.90
17170;DHT22;8700;48.222;16.342;2024-01-06T13:58:37;7.20;99.90
17170;DHT22;8700;48.222;16.342;2024-01-06T14:01:59;7.20;99.90
17170;DHT22;8700;48.222;16.342;2024-01-06T14:05:20;7.30;99.90
17170;DHT22;8700;48.222;16.342;2024-01-06T14:08:41;7.40;99.90
17170;DHT22;8700;48.222;16.342;2024-01-06T14:12:05;7.30;99.90
17170;DHT22;8700;48.222;16.342;2024-01-06T14:15:26;7.40;99.90
17170;DHT22;8700;48.222;16.342;2024-01-06T14:18:49;7.30;99.90
17170;DHT22;8700;48.222;16.342;2024-01-06T14:22:10;7.30;99.90
17170;DHT22;8700;48.222;16.342;2024-01-06T14:25:31;7.20;99.90
17170;DHT22;8700;48.222;16.342;2024-01-06T14:28:54;7.20;99.90
17170;DHT22;8700;48.222;16.342;2024-01-06T14:32:15;7.20;99.90
17170;DHT22;8700;48.222;16.342;2024-01-06T14:35:36;7.10;99.90
17170;DHT22;8700;48.222;16.342;2024-01-06T14:38:57;7.10;99.90
17170;DHT22;8700;48.222;16.342;2024-01-06T14:42:18;7.10;99.90
17170;DHT22;8700;48.222;16.342;2024-01-06T14:45:41;7.20;99.90
17170;DHT22;8700;48.222;16.342;2024-01-06T14:49:02;7.20;99.90
17170;DHT22;8700;48.222;16.342;2024-01-06T14:52:23;7.10;99.90
17170;DHT22;8700;48.222;16.342;2024-01-06T14:55:44;7.10;99.90
17170;DHT22;8700;48.222;16.342;2024-01-06T14:59:05;7.10;99.90
17170;DHT22;8700;48.222;16.342;2024-01-06T15:02:28;7.20;99.90
17170;DHT22;8700;48.222;16.342;2024-01-06T15:05:49;7.20;99.90
17170;DHT22;8700;48.222;16.342;2024-01-06T15:09:11;7.30;99.90
17170;DHT22;8700;48.222;16.342;2024-01-06T15:12:32;7.20;99.90
17170;DHT22;8700;48.222;16.342;2024-01-06T15:15:54;7.30;99.90
17170;DHT22;8700;48.222;16.342;2024-01-06T15:19:16;7.20;99.90
17170;DHT22;8700;48.222;16.342;2024-01-06T15:22:37;7.20;99.90
17170;DHT22;8700;48.222;16.342;2024-01-06T15:25:58;7.10;99.90
17170;DHT22;8700;48.222;16.342;2024-01-06T15:29:23;7.00;99.90
17170;DHT22;8700;48.222;16.342;2024-01-06T15:32:44;7.00;99.90
17170;DHT22;8700;48.222;16.342;2024-01-06T15:36:07;6.90;99.90
17170;DHT22;8700;48.222;16.342;2024-01-06T15:39:29;6.90;99.90
17170;DHT22;8700;48.222;16.342;2024-01-06T15:42:50;6.90;99.90
17170;DHT22;8700;48.222;16.342;2024-01-06T15:46:11;6.90;99.90
17170;DHT22;8700;48.222;16.342;2024-01-06T15:49:32;7.00;99.90
17170;DHT22;8700;48.222;16.342;2024-01-06T15:52:54;6.90;99.90
17170;DHT22;8700;48.222;16.342;2024-01-06T15:56:16;6.90;99.90
17170;DHT22;8700;48.222;16.342;2024-01-06T15:59:37;6.90;99.90
17170;DHT22;8700;48.222;16.342;2024-01-06T16:02:58;6.90;99.90
17170;DHT22;8700;48.222;16.342;2024-01-06T16:06:19;6.90;99.90
17170;DHT22;8700;48.222;16.342;2024-01-06T16:09:42;6.80;99.90
17170;DHT22;8700;48.222;16.342;2024-01-06T16:13:03;6.80;99.90
17170;DHT22;8700;48.222;16.342;2024-01-06T16:16:28;6.90;99.90
17170;DHT22;8700;48.222;16.342;2024-01-06T16:19:49;6.90;99.90
17170;DHT22;8700;48.222;16.342;2024-01-06T16:23:10;7.00;99.90
17170;DHT22;8700;48.222;16.342;2024-01-06T16:26:34;7.00;99.90
17170;DHT22;8700;48.222;16.342;2024-01-06T16:29:56;7.10;99.90
17170;DHT22;8700;48.222;16.342;2024-01-06T16:33:17;7.10;99.90
17170;DHT22;8700;48.222;16.342;2024-01-06T16:36:38;7.20;99.90
17170;DHT22;8700;48.222;16.342;2024-01-06T16:40:01;7.10;99.90
17170;DHT22;8700;48.222;16.342;2024-01-06T16:43:24;7.00;99.90
17170;DHT22;8700;48.222;16.342;2024-01-06T16:46:45;7.00;99.90
17170;DHT22;8700;48.222;16.342;2024-01-06T16:50:07;7.10;99.90
17170;DHT22;8700;48.222;16.342;2024-01-06T16:53:28;7.20;99.90
17170;DHT22;8700;48.222;16.342;2024-01-06T16:56:50;7.20;99.90
17170;DHT22;8700;48.222;16.342;2024-01-06T17:00:14;7.30;99.90
17170;DHT22;8700;48.222;16.342;2024-01-06T17:03:36;7.30;99.90
17170;DHT22;8700;48.222;16.342;2024-01-06T17:06:57;7.30;99.90
17170;DHT22;8700;48.222;16.342;2024-01-06T17:10:19;7.30;99.90
17170;DHT22;8700;48.222;16.342;2024-01-06T17:13:40;7.30;99.90
17170;DHT22;8700;48.222;16.342;2024-01-06T17:17:02;7.30;99.90
17170;DHT22;8700;48.222;16.342;2024-01-06T17:20:25;7.40;99.90
17170;DHT22;8700;48.222;16.342;2024-01-06T17:23:46;7.40;99.90
17170;DHT22;8700;48.222;16.342;2024-01-06T17:27:10;7.30;99.90
17170;DHT22;8700;48.222;16.342;2024-01-06T17:30:32;7.30;99.90
17170;DHT22;8700;48.222;16.342;2024-01-06T17:33:54;7.40;99.90
17170;DHT22;8700;48.222;16.342;2024-01-06T17:37:15;7.30;99.90
17170;DHT22;8700;48.222;16.342;2024-01-06T17:40:37;7.30;99.90
17170;DHT22;8700;48.222;16.342;2024-01-06T17:43:58;7.30;99.90
17170;DHT22;8700;48.222;16.342;2024-01-06T17:47:19;7.20;99.90
17170;DHT22;8700;48.222;16.342;2024-01-06T17:50:42;7.10;99.90
17170;DHT22;8700;48.222;16.342;2024-01-06T17:54:03;7.20;99.90
17170;DHT22;8700;48.222;16.342;2024-01-06T17:57:24;7.20;99.90
17170;DHT22;8700;48.222;16.342;2024-01-06T18:00:47;7.20;99.90
17170;DHT22;8700;48.222;16.342;2024-01-06T18:04:09;7.30;99.90
17170;DHT22;8700;48.222;16.342;2024-01-06T18:07:31;7.30;99.90
17170;DHT22;8700;48.222;16.342;2024-01-06T18:10:52;7.20;99.90
17170;DHT22;8700;48.222;16.342;2024-01-06T18:14:14;7.20;99.90
17170;DHT22;8700;48.222;16.342;2024-01-06T18:17:35;7.20;99.90
17170;DHT22;8700;48.222;16.342;2024-01-06T18:20:58;7.30;99.90
17170;DHT22;8700;48.222;16.342;2024-01-06T18:24:20;7.20;99.90
17170;DHT22;8700;48.222;16.342;2024-01-06T18:27:42;7.20;99.90
17170;DHT22;8700;48.222;16.342;2024-01-06T18:31:04;7.20;99.90
17170;DHT22;8700;48.222;16.342;2024-01-06T18:34:25;7.10;99.90
17170;DHT22;8700;48.222;16.342;2024-01-06T18:37:47;7.30;99.90
17170;DHT22;8700;48.222;16.342;2024-01-06T18:41:10;7.40;99.90
17170;DHT22;8700;48.222;16.342;2024-01-06T18:44:31;7.50;99.90
17170;DHT22;8700;48.222;16.342;2024-01-06T18:47:52;7.50;99.90
17170;DHT22;8700;48.222;16.342;2024-01-06T18:51:14;7.40;99.90
17170;DHT22;8700;48.222;16.342;2024-01-06T18:54:35;7.40;99.90
17170;DHT22;8700;48.222;16.342;2024-01-06T18:57:58;7.50;99.90
17170;DHT22;8700;48.222;16.342;2024-01-06T19:01:20;7.60;99.90
17170;DHT22;8700;48.222;16.342;2024-01-06T19:04:41;7.60;99.90
17170;DHT22;8700;48.222;16.342;2024-01-06T19:08:03;7.60;99.90
17170;DHT22;8700;48.222;16.342;2024-01-06T19:11:25;7.60;99.90
17170;DHT22;8700;48.222;16.342;2024-01-06T19:14:47;7.50;99.90
17170;DHT22;8700;48.222;16.342;2024-01-06T19:18:09;7.50;99.90
17170;DHT22;8700;48.222;16.342;2024-01-06T19:21:30;7.40;99.90
17170;DHT22;8700;48.222;16.342;2024-01-06T19:24:51;7.40;99.90
17170;DHT22;8700;48.222;16.342;2024-01-06T19:28:12;7.40;99.90
17170;DHT22;8700;48.222;16.342;2024-01-06T19:31:35;7.40;99.90
17170;DHT22;8700;48.222;16.342;2024-01-06T19:34:56;7.40;99.90
17170;DHT22;8700;48.222;16.342;2024-01-06T19:38:18;7.40;99.90
17170;DHT22;8700;48.222;16.342;2024-01-06T19:41:39;7.30;99.90
17170;DHT22;8700;48.222;16.342;2024-01-06T19:45:00;7.30;99.90
17170;DHT22;8700;48.222;16.342;2024-01-06T19:48:23;7.40;99.90
17170;DHT22;8700;48.222;16.342;2024-01-06T19:51:44;7.40;99.90
17170;DHT22;8700;48.222;16.342;2024-01-06T19:55:07;7.20;99.90
17170;DHT22;8700;48.222;16.342;2024-01-06T19:58:29;7.30;99.90
17170;DHT22;8700;48.222;16.342;2024-01-06T20:01:52;7.30;99.90
17170;DHT22;8700;48.222;16.342;2024-01-06T20:05:15;7.30;99.90
17170;DHT22;8700;48.222;16.342;2024-01-06T20:08:37;7.30;99.90
17170;DHT22;8700;48.222;16.342;2024-01-06T20:11:58;7.20;99.90
17170;DHT22;8700;48.222;16.342;2024-01-06T20:15:19;7.10;99.90
17170;DHT22;8700;48.222;16.342;2024-01-06T20:18:40;7.00;99.90
17170;DHT22;8700;48.222;16.342;2024-01-06T20:22:03;7.00;99.90
17170;DHT22;8700;48.222;16.342;2024-01-06T20:25:25;7.00;99.90
17170;DHT22;8700;48.222;16.342;2024-01-06T20:28:46;7.00;99.90
17170;DHT22;8700;48.222;16.342;2024-01-06T20:32:07;7.00;99.90
17170;DHT22;8700;48.222;16.342;2024-01-06T20:35:29;6.80;99.90
17170;DHT22;8700;48.222;16.342;2024-01-06T20:38:51;6.80;99.90
17170;DHT22;8700;48.222;16.342;2024-01-06T20:42:13;6.80;99.90
17170;DHT22;8700;48.222;16.342;2024-01-06T20:45:34;6.90;99.90
17170;DHT22;8700;48.222;16.342;2024-01-06T20:48:56;6.80;99.90
17170;DHT22;8700;48.222;16.342;2024-01-06T20:52:17;6.70;99.90
17170;DHT22;8700;48.222;16.342;2024-01-06T20:55:40;6.70;99.90
17170;DHT22;8700;48.222;16.342;2024-01-06T20:59:01;6.60;99.90
17170;DHT22;8700;48.222;16.342;2024-01-06T21:02:23;6.60;99.90
17170;DHT22;8700;48.222;16.342;2024-01-06T21:05:44;6.70;99.90
17170;DHT22;8700;48.222;16.342;2024-01-06T21:09:05;6.60;99.90
17170;DHT22;8700;48.222;16.342;2024-01-06T21:12:27;6.60;99.90
17170;DHT22;8700;48.222;16.342;2024-01-06T21:15:51;6.60;99.90
17170;DHT22;8700;48.222;16.342;2024-01-06T21:19:12;6.50;99.90
17170;DHT22;8700;48.222;16.342;2024-01-06T21:22:33;6.50;99.90
17170;DHT22;8700;48.222;16.342;2024-01-06T21:25:54;6.50;99.90
17170;DHT22;8700;48.222;16.342;2024-01-06T21:29:17;6.40;99.90
17170;DHT22;8700;48.222;16.342;2024-01-06T21:32:39;6.30;99.90